createdAt,value
2022-08-27T00:00:53.944Z,3.17
2022-08-27T00:03:23.267Z,3.60
2022-08-27T00:05:54.285Z,3.63
2022-08-27T00:08:24.176Z,3.65
2022-08-27T00:10:53.567Z,3.67
2022-08-27T00:13:22.594Z,4.05
2022-08-27T00:15:52.248Z,3.80
2022-08-27T00:18:22.808Z,3.30
2022-08-27T00:20:53.873Z,3.72
2022-08-27T00:23:22.942Z,3.38
2022-08-27T00:25:53.209Z,3.70
2022-08-27T00:28:22.410Z,3.72
2022-08-27T00:30:53.246Z,3.53
2022-08-27T00:33:22.818Z,3.75
2022-08-27T00:35:52.440Z,3.95
2022-08-27T00:38:23.667Z,3.58
2022-08-27T00:40:53.485Z,3.88
2022-08-27T00:43:23.855Z,3.35
2022-08-27T00:45:55.578Z,4.00
2022-08-27T00:48:34.236Z,3.08
2022-08-27T00:51:06.671Z,4.28
2022-08-27T00:53:37.852Z,3.30
2022-08-27T00:56:12.275Z,4.00
2022-08-27T00:58:45.398Z,3.60
2022-08-27T01:01:15.769Z,3.28
2022-08-27T01:03:47.606Z,3.05
2022-08-27T01:06:17.924Z,3.17
2022-08-27T01:08:50.323Z,3.53
2022-08-27T01:14:00.014Z,3.55
2022-08-27T01:16:33.334Z,2.85
2022-08-27T01:19:02.796Z,3.50
2022-08-27T01:21:33.754Z,3.40
2022-08-27T01:24:07.734Z,3.45
2022-08-27T01:26:38.267Z,2.90
2022-08-27T01:29:07.558Z,2.95
2022-08-27T01:31:37.067Z,3.35
2022-08-27T01:34:07.629Z,3.80
2022-08-27T01:36:37.073Z,3.55
2022-08-27T01:39:07.355Z,4.07
2022-08-27T01:41:38.221Z,4.35
2022-08-27T01:44:07.271Z,3.45
2022-08-27T01:46:37.100Z,3.08
2022-08-27T01:49:06.979Z,3.30
2022-08-27T01:51:36.565Z,3.85
2022-08-27T01:54:05.924Z,3.65
2022-08-27T01:56:35.082Z,4.75
2022-08-27T01:59:05.823Z,4.07
2022-08-27T02:01:35.627Z,3.22
2022-08-27T02:04:05.341Z,3.45
2022-08-27T02:06:34.951Z,3.33
2022-08-27T02:09:04.789Z,5.28
2022-08-27T02:11:34.681Z,3.58
2022-08-27T02:14:15.628Z,3.75
2022-08-27T02:16:52.072Z,3.30
2022-08-27T02:19:23.913Z,3.38
2022-08-27T02:24:24.621Z,3.47
2022-08-27T02:26:53.898Z,4.05
2022-08-27T02:29:24.420Z,3.38
2022-08-27T02:31:54.423Z,3.65
2022-08-27T02:34:23.711Z,3.25
2022-08-27T02:36:53.877Z,3.65
2022-08-27T02:39:23.322Z,4.00
2022-08-27T02:41:52.754Z,3.60
2022-08-27T02:44:22.392Z,3.70
2022-08-27T02:46:53.906Z,3.63
2022-08-27T02:49:23.520Z,2.78
2022-08-27T02:51:54.984Z,3.28
2022-08-27T02:54:24.821Z,3.30
2022-08-27T02:56:56.108Z,3.13
2022-08-27T02:59:26.106Z,3.95
2022-08-27T03:01:56.971Z,3.13
2022-08-27T03:04:28.171Z,3.90
2022-08-27T03:06:57.957Z,3.57
2022-08-27T03:09:27.063Z,3.33
2022-08-27T03:11:56.945Z,3.38
2022-08-27T03:14:29.551Z,3.50
2022-08-27T03:17:21.537Z,3.55
2022-08-27T03:19:50.644Z,3.70
2022-08-27T03:22:19.774Z,3.47
2022-08-27T03:24:55.645Z,2.92
2022-08-27T03:27:25.639Z,3.30
2022-08-27T03:29:55.153Z,3.22
2022-08-27T03:32:26.504Z,3.85
2022-08-27T03:34:55.728Z,3.70
2022-08-27T03:37:25.327Z,2.85
2022-08-27T03:39:55.012Z,3.03
2022-08-27T03:42:24.711Z,3.40
2022-08-27T03:44:57.751Z,3.50
2022-08-27T03:47:28.604Z,2.55
2022-08-27T03:49:59.882Z,3.10
2022-08-27T03:52:29.391Z,3.70
2022-08-27T03:55:00.416Z,3.00
2022-08-27T03:57:29.729Z,3.63
2022-08-27T03:59:58.817Z,2.88
2022-08-27T04:02:29.522Z,2.85
2022-08-27T04:04:59.732Z,2.50
2022-08-27T04:07:29.088Z,3.35
2022-08-27T04:09:59.027Z,4.35
2022-08-27T04:12:28.077Z,2.78
2022-08-27T04:14:59.643Z,3.15
2022-08-27T04:17:30.783Z,2.92
2022-08-27T04:20:18.759Z,2.90
2022-08-27T04:22:50.091Z,3.20
2022-08-27T04:25:19.192Z,3.22
2022-08-27T04:27:48.483Z,2.95
2022-08-27T04:30:19.390Z,3.05
2022-08-27T04:32:50.697Z,3.05
2022-08-27T04:35:20.140Z,3.23
2022-08-27T04:37:49.198Z,3.20
2022-08-27T04:40:18.762Z,3.33
2022-08-27T04:42:48.276Z,3.38
2022-08-27T04:45:17.447Z,2.92
2022-08-27T04:47:46.808Z,3.28
2022-08-27T04:50:17.326Z,3.50
2022-08-27T04:52:46.726Z,3.58
2022-08-27T04:55:17.028Z,3.20
2022-08-27T04:57:48.601Z,3.15
2022-08-27T05:00:18.005Z,2.97
2022-08-27T05:02:47.313Z,3.58
2022-08-27T05:05:18.119Z,3.25
2022-08-27T05:07:47.341Z,2.97
2022-08-27T05:10:16.513Z,3.10
2022-08-27T05:12:45.779Z,2.88
2022-08-27T05:15:15.299Z,3.00
2022-08-27T05:17:44.649Z,3.42
2022-08-27T05:20:13.788Z,3.08
2022-08-27T05:22:46.186Z,3.25
2022-08-27T05:25:15.329Z,3.03
2022-08-27T05:27:44.881Z,3.10
2022-08-27T05:30:14.407Z,3.20
2022-08-27T05:32:43.407Z,3.20
2022-08-27T05:35:15.568Z,2.85
2022-08-27T05:37:46.316Z,2.60
2022-08-27T05:40:15.845Z,2.97
2022-08-27T05:42:46.464Z,3.05
2022-08-27T05:45:19.515Z,2.67
2022-08-27T05:47:52.000Z,2.42
2022-08-27T05:50:23.626Z,2.40
2022-08-27T05:52:54.697Z,2.90
2022-08-27T05:55:23.881Z,2.40
2022-08-27T05:57:53.114Z,2.35
2022-08-27T06:00:57.540Z,2.10
2022-08-27T06:03:29.075Z,2.00
2022-08-27T06:06:01.894Z,2.05
2022-08-27T06:08:32.806Z,2.08
2022-08-27T06:11:02.246Z,2.40
2022-08-27T06:13:31.634Z,2.03
2022-08-27T06:16:03.399Z,3.65
2022-08-27T06:18:36.246Z,2.92
2022-08-27T06:21:05.736Z,2.22
2022-08-27T06:23:36.946Z,3.00
2022-08-27T06:26:08.137Z,2.08
2022-08-27T06:28:39.310Z,2.10
2022-08-27T06:31:09.467Z,1.88
2022-08-27T06:33:39.655Z,1.90
2022-08-27T06:36:10.623Z,2.22
2022-08-27T06:38:42.902Z,1.92
2022-08-27T06:41:16.364Z,1.95
2022-08-27T06:43:52.472Z,2.00
2022-08-27T06:46:22.899Z,2.28
2022-08-27T06:48:53.271Z,2.00
2022-08-27T06:51:26.156Z,2.13
2022-08-27T06:53:57.587Z,1.98
2022-08-27T06:56:28.919Z,2.10
2022-08-27T06:58:59.497Z,1.90
2022-08-27T07:01:31.990Z,1.75
2022-08-27T07:04:04.455Z,2.00
2022-08-27T07:06:36.154Z,1.65
2022-08-27T07:09:07.721Z,2.10
2022-08-27T07:11:38.102Z,2.35
2022-08-27T07:14:08.229Z,2.50
2022-08-27T07:16:37.709Z,2.22
2022-08-27T07:19:10.659Z,2.10
2022-08-27T07:21:41.107Z,2.03
2022-08-27T07:24:12.556Z,2.10
2022-08-27T07:26:43.659Z,1.90
2022-08-27T07:29:14.352Z,3.20
2022-08-27T07:31:43.997Z,1.95
2022-08-27T07:34:13.125Z,1.48
2022-08-27T07:36:42.892Z,2.38
2022-08-27T07:39:16.740Z,2.30
2022-08-27T07:42:03.379Z,1.92
2022-08-27T07:44:34.647Z,2.65
2022-08-27T07:47:04.779Z,2.47
2022-08-27T07:49:35.352Z,2.35
2022-08-27T07:52:04.857Z,2.05
2022-08-27T07:54:36.264Z,2.85
2022-08-27T07:57:05.494Z,2.10
2022-08-27T07:59:35.014Z,2.00
2022-08-27T08:02:04.165Z,1.90
2022-08-27T08:04:33.231Z,2.15
2022-08-27T08:07:02.783Z,2.50
2022-08-27T08:09:32.270Z,1.95
2022-08-27T08:12:03.207Z,2.10
2022-08-27T08:14:33.258Z,1.98
2022-08-27T08:17:03.225Z,2.28
2022-08-27T08:19:36.070Z,1.85
2022-08-27T08:22:06.135Z,1.90
2022-08-27T08:24:36.518Z,1.80
2022-08-27T08:27:08.040Z,2.22
2022-08-27T08:29:37.970Z,3.05
2022-08-27T08:32:07.605Z,1.98
2022-08-27T08:34:36.967Z,1.70
2022-08-27T08:37:06.671Z,1.40
2022-08-27T08:39:36.809Z,1.92
2022-08-27T08:42:10.286Z,1.75
2022-08-27T08:44:43.227Z,1.40
2022-08-27T08:47:14.461Z,1.33
2022-08-27T08:49:48.237Z,1.50
2022-08-27T08:52:31.114Z,1.48
2022-08-27T08:55:15.332Z,1.50
2022-08-27T08:57:49.628Z,1.63
2022-08-27T09:00:19.587Z,2.00
2022-08-27T09:02:54.494Z,2.00
2022-08-27T09:05:27.432Z,1.83
2022-08-27T09:08:28.569Z,2.00
2022-08-27T09:10:54.620Z,2.13
2022-08-27T09:13:27.658Z,1.95
2022-08-27T09:15:58.784Z,2.17
2022-08-27T09:18:28.283Z,2.45
2022-08-27T09:21:04.921Z,2.80
2022-08-27T09:23:40.883Z,2.17
2022-08-27T09:26:18.915Z,2.58
2022-08-27T09:29:07.037Z,2.65
2022-08-27T09:31:41.015Z,2.42
2022-08-27T09:34:10.764Z,2.30
2022-08-27T09:36:49.456Z,2.15
2022-08-27T09:39:18.669Z,1.80
2022-08-27T09:41:49.530Z,1.85
2022-08-27T09:44:20.891Z,1.75
2022-08-27T09:46:57.953Z,1.58
2022-08-27T09:49:28.044Z,1.70
2022-08-27T09:51:57.813Z,2.03
2022-08-27T09:54:29.315Z,2.03
2022-08-27T09:56:59.152Z,1.67
2022-08-27T09:59:31.366Z,2.35
2022-08-27T10:04:50.774Z,2.10
2022-08-27T10:07:35.567Z,2.25
2022-08-27T10:10:07.925Z,2.17
2022-08-27T10:12:42.174Z,1.63
2022-08-27T10:15:14.286Z,1.88
2022-08-27T10:20:24.290Z,2.15
2022-08-27T10:23:01.256Z,2.15
2022-08-27T10:25:34.079Z,2.30
2022-08-27T10:28:08.239Z,3.25
2022-08-27T10:35:05.629Z,1.88
2022-08-27T10:37:40.243Z,1.92
2022-08-27T10:40:14.588Z,1.77
2022-08-27T10:42:47.586Z,1.48
2022-08-27T10:45:30.606Z,1.38
2022-08-27T10:48:05.348Z,2.35
2022-08-27T10:50:40.996Z,2.58
2022-08-27T10:53:12.475Z,1.85
2022-08-27T10:55:43.576Z,1.92
2022-08-27T10:58:30.567Z,1.95
2022-08-27T11:01:02.363Z,1.70
2022-08-27T11:03:35.232Z,1.92
2022-08-27T11:06:09.799Z,1.30
2022-08-27T11:08:41.499Z,1.40
2022-08-27T11:11:57.192Z,1.77
2022-08-27T11:14:04.582Z,1.60
2022-08-27T11:16:36.200Z,1.30
2022-08-27T11:19:08.022Z,1.30
2022-08-27T11:21:42.289Z,1.50
2022-08-27T11:24:16.807Z,1.08
2022-08-27T11:26:46.337Z,1.45
2022-08-27T11:29:20.889Z,1.52
2022-08-27T11:31:52.857Z,1.40
2022-08-27T11:34:27.091Z,2.47
2022-08-27T11:37:08.202Z,1.40
2022-08-27T11:39:47.571Z,1.55
2022-08-27T11:42:23.938Z,1.52
2022-08-27T11:44:55.305Z,1.27
2022-08-27T11:47:25.878Z,1.45
2022-08-27T11:49:56.596Z,2.15
2022-08-27T11:52:29.298Z,1.60
2022-08-27T11:54:59.793Z,1.10
2022-08-27T11:57:31.345Z,1.08
2022-08-27T12:00:01.291Z,1.33
2022-08-27T12:02:33.569Z,1.20
2022-08-27T12:05:09.833Z,1.23
2022-08-27T12:07:48.072Z,1.10
2022-08-27T12:10:39.097Z,1.60
2022-08-27T12:13:19.266Z,1.33
2022-08-27T12:15:51.850Z,1.30
2022-08-27T12:18:37.314Z,1.02
2022-08-27T12:21:14.438Z,1.20
2022-08-27T12:23:50.135Z,2.67
2022-08-27T12:26:28.609Z,1.67
2022-08-27T12:29:17.676Z,2.08
2022-08-27T12:31:50.600Z,1.20
2022-08-27T12:34:22.893Z,1.00
2022-08-27T12:36:53.410Z,1.30
2022-08-27T12:39:27.171Z,1.55
2022-08-27T12:41:57.791Z,0.93
2022-08-27T12:44:28.318Z,1.52
2022-08-27T12:47:02.968Z,1.20
2022-08-27T12:49:39.382Z,1.35
2022-08-27T12:52:16.240Z,2.45
2022-08-27T12:54:52.226Z,0.90
2022-08-27T12:57:26.461Z,1.40
2022-08-27T13:00:05.144Z,1.00
2022-08-27T13:02:46.164Z,1.08
2022-08-27T13:05:19.522Z,1.08
2022-08-27T13:07:51.964Z,1.42
2022-08-27T13:10:22.169Z,1.17
2022-08-27T13:13:01.926Z,1.20
2022-08-27T13:15:31.199Z,1.48
2022-08-27T13:18:02.995Z,1.13
2022-08-27T13:20:33.170Z,1.48
2022-08-27T13:23:02.760Z,0.95
2022-08-27T13:25:33.223Z,0.80
2022-08-27T13:28:08.109Z,1.20
2022-08-27T13:30:38.772Z,1.13
2022-08-27T13:33:10.925Z,1.55
2022-08-27T13:35:42.638Z,1.17
2022-08-27T13:38:12.522Z,1.02
2022-08-27T13:40:53.217Z,1.60
2022-08-27T13:43:23.606Z,1.65
2022-08-27T13:45:54.572Z,1.60
2022-08-27T13:48:25.298Z,1.73
2022-08-27T13:50:56.362Z,2.17
2022-08-27T13:53:45.188Z,1.00
2022-08-27T13:56:25.386Z,1.35
2022-08-27T13:58:54.617Z,1.67
2022-08-27T14:01:28.280Z,1.00
2022-08-27T14:04:00.779Z,1.05
2022-08-27T14:06:35.739Z,1.25
2022-08-27T14:09:13.486Z,0.93
2022-08-27T14:11:43.118Z,1.20
2022-08-27T14:14:12.885Z,1.02
2022-08-27T14:16:42.468Z,1.27
2022-08-27T14:19:15.204Z,1.15
2022-08-27T14:21:45.380Z,1.10
2022-08-27T14:24:14.589Z,1.10
2022-08-27T14:26:44.124Z,1.17
2022-08-27T14:29:13.413Z,0.90
2022-08-27T14:31:42.386Z,0.75
2022-08-27T14:34:12.975Z,1.13
2022-08-27T14:36:44.486Z,0.88
2022-08-27T14:39:13.916Z,1.20
2022-08-27T14:41:43.061Z,0.90
2022-08-27T14:44:13.837Z,1.25
2022-08-27T14:46:43.344Z,1.30
2022-08-27T14:49:16.933Z,0.98
2022-08-27T14:51:46.714Z,0.80
2022-08-27T14:54:15.696Z,0.90
2022-08-27T14:56:44.899Z,1.05
2022-08-27T14:59:14.007Z,1.00
2022-08-27T15:01:44.679Z,1.35
2022-08-27T15:04:15.235Z,1.42
2022-08-27T15:06:46.034Z,1.70
2022-08-27T15:09:17.632Z,0.90
2022-08-27T15:11:47.406Z,1.10
2022-08-27T15:14:18.605Z,0.85
2022-08-27T15:16:47.903Z,0.80
2022-08-27T15:19:18.914Z,0.70
2022-08-27T15:21:49.132Z,0.80
2022-08-27T15:24:20.424Z,0.70
2022-08-27T15:26:49.667Z,1.37
2022-08-27T15:29:18.923Z,0.77
2022-08-27T15:31:48.371Z,0.80
2022-08-27T15:34:19.046Z,0.70
2022-08-27T15:36:48.187Z,0.68
2022-08-27T15:39:17.563Z,0.65
2022-08-27T15:42:05.332Z,0.90
2022-08-27T15:44:35.252Z,1.00
2022-08-27T15:47:04.297Z,0.85
2022-08-27T15:49:34.887Z,0.90
2022-08-27T15:52:04.227Z,1.33
2022-08-27T15:54:33.250Z,1.10
2022-08-27T15:57:02.559Z,1.30
2022-08-27T15:59:32.203Z,1.02
2022-08-27T16:02:01.677Z,1.20
2022-08-27T16:04:30.869Z,0.80
2022-08-27T16:07:01.371Z,1.10
2022-08-27T16:09:30.505Z,1.38
2022-08-27T16:12:00.460Z,0.88
2022-08-27T16:14:29.613Z,0.73
2022-08-27T16:16:59.085Z,2.10
2022-08-27T16:19:28.106Z,1.30
2022-08-27T16:21:57.102Z,1.55
2022-08-27T16:24:27.954Z,0.80
2022-08-27T16:26:57.221Z,0.73
2022-08-27T16:29:26.326Z,0.80
2022-08-27T16:32:00.573Z,1.10
2022-08-27T16:34:30.863Z,0.80
2022-08-27T16:37:00.127Z,0.98
2022-08-27T16:39:33.733Z,1.08
2022-08-27T16:42:04.899Z,1.00
2022-08-27T16:44:35.627Z,0.68
2022-08-27T16:47:05.422Z,0.70
2022-08-27T16:49:52.062Z,1.40
2022-08-27T16:52:23.623Z,0.68
2022-08-27T16:55:08.293Z,0.80
2022-08-27T16:57:37.566Z,0.77
2022-08-27T17:00:10.008Z,0.80
2022-08-27T17:02:39.085Z,1.05
2022-08-27T17:05:33.874Z,1.55
2022-08-27T17:07:59.462Z,1.00
2022-08-27T17:10:31.161Z,1.13
2022-08-27T17:13:00.137Z,1.02
2022-08-27T17:15:29.305Z,0.77
2022-08-27T17:17:59.538Z,0.70
2022-08-27T17:20:29.965Z,1.48
2022-08-27T17:23:00.422Z,0.55
2022-08-27T17:25:31.068Z,0.82
2022-08-27T17:28:00.716Z,0.98
2022-08-27T17:30:30.304Z,0.80
2022-08-27T17:32:59.661Z,0.90
2022-08-27T17:35:28.972Z,0.88
2022-08-27T17:37:58.154Z,1.55
2022-08-27T17:40:27.303Z,0.90
2022-08-27T17:42:58.511Z,0.70
2022-08-27T17:45:27.535Z,0.65
2022-08-27T17:47:56.760Z,1.35
2022-08-27T17:50:25.817Z,1.20
2022-08-27T17:52:55.104Z,0.90
2022-08-27T17:55:25.043Z,0.70
2022-08-27T17:57:54.019Z,0.80
2022-08-27T18:00:24.499Z,0.90
2022-08-27T18:02:54.573Z,1.20
2022-08-27T18:05:25.378Z,1.05
2022-08-27T18:07:56.891Z,1.08
2022-08-27T18:10:27.028Z,1.50
2022-08-27T18:12:56.967Z,1.40
2022-08-27T18:15:28.943Z,1.67
2022-08-27T18:20:28.416Z,1.05
2022-08-27T18:22:57.778Z,0.80
2022-08-27T18:25:29.091Z,0.88
2022-08-27T18:28:01.024Z,0.95
2022-08-27T18:30:32.351Z,0.98
2022-08-27T18:33:01.974Z,2.42
2022-08-27T18:35:32.415Z,2.17
2022-08-27T18:38:01.422Z,2.60
2022-08-27T18:40:31.597Z,1.48
2022-08-27T18:43:00.782Z,1.35
2022-08-27T18:45:33.206Z,1.20
2022-08-27T18:48:02.422Z,1.17
2022-08-27T18:50:33.010Z,1.27
2022-08-27T18:53:02.204Z,1.30
2022-08-27T18:55:33.586Z,1.23
2022-08-27T18:58:02.999Z,1.38
2022-08-27T19:00:33.674Z,2.13
2022-08-27T19:03:03.023Z,1.40
2022-08-27T19:05:32.459Z,1.50
2022-08-27T19:08:01.533Z,2.90
2022-08-27T19:10:31.392Z,2.78
2022-08-27T19:13:00.703Z,2.30
2022-08-27T19:15:29.772Z,3.63
2022-08-27T19:18:02.955Z,2.90
2022-08-27T19:20:32.402Z,2.33
2022-08-27T19:23:01.449Z,3.20
2022-08-27T19:25:31.037Z,2.42
2022-08-27T19:28:00.231Z,2.45
2022-08-27T19:30:29.400Z,0.93
2022-08-27T19:33:02.357Z,1.30
2022-08-27T19:35:31.380Z,1.25
2022-08-27T19:38:00.377Z,1.50
2022-08-27T19:40:29.724Z,2.00
2022-08-27T19:42:58.991Z,1.58
2022-08-27T19:45:28.313Z,2.40
2022-08-27T19:47:57.597Z,2.20
2022-08-27T19:50:27.928Z,1.80
2022-08-27T19:52:57.126Z,2.40
2022-08-27T19:55:26.274Z,2.47
2022-08-27T19:57:55.339Z,2.83
2022-08-27T20:00:27.633Z,1.40
2022-08-27T20:02:57.100Z,1.55
2022-08-27T20:05:26.275Z,1.40
2022-08-27T20:07:56.763Z,1.90
2022-08-27T20:10:36.164Z,1.67
2022-08-27T20:13:05.992Z,1.70
2022-08-27T20:15:34.944Z,2.10
2022-08-27T20:18:04.840Z,2.17
2022-08-27T20:20:34.708Z,2.25
2022-08-27T20:23:05.453Z,2.22
2022-08-27T20:25:35.401Z,9.82
2022-08-27T20:28:34.999Z,6.30
2022-08-27T20:30:58.038Z,3.95
2022-08-27T20:33:27.518Z,3.90
2022-08-27T20:35:56.998Z,2.30
2022-08-27T20:38:27.364Z,2.80
2022-08-27T20:40:56.399Z,2.17
2022-08-27T20:43:25.528Z,2.08
2022-08-27T20:45:54.525Z,1.75
2022-08-27T20:48:23.603Z,1.83
2022-08-27T20:50:52.650Z,1.58
2022-08-27T20:53:22.173Z,1.77
2022-08-27T20:55:56.467Z,1.92
2022-08-27T20:58:43.791Z,1.70
2022-08-27T21:01:13.354Z,1.50
2022-08-27T21:03:42.542Z,1.77
2022-08-27T21:06:12.067Z,1.70
2022-08-27T21:08:41.235Z,2.70
2022-08-27T21:11:12.804Z,1.65
2022-08-27T21:13:55.219Z,2.00
2022-08-27T21:16:26.014Z,3.60
2022-08-27T21:18:55.868Z,3.05
2022-08-27T21:21:25.158Z,4.78
2022-08-27T21:23:55.292Z,3.10
2022-08-27T21:26:25.948Z,3.20
2022-08-27T21:28:57.293Z,2.35
2022-08-27T21:31:26.354Z,2.47
2022-08-27T21:33:55.496Z,2.80
2022-08-27T21:36:25.040Z,2.97
2022-08-27T21:38:54.128Z,3.70
2022-08-27T21:41:24.082Z,2.95
2022-08-27T21:43:54.907Z,3.42
2022-08-27T21:46:24.124Z,3.40
2022-08-27T21:48:58.964Z,3.38
2022-08-27T21:51:28.328Z,3.50
2022-08-27T21:53:57.382Z,4.18
2022-08-27T21:56:26.975Z,3.72
2022-08-27T21:58:57.390Z,4.20
2022-08-27T22:01:26.652Z,3.80
2022-08-27T22:03:55.887Z,3.63
2022-08-27T22:06:25.071Z,3.90
2022-08-27T22:08:54.094Z,2.50
2022-08-27T22:11:24.511Z,4.35
2022-08-27T22:13:54.104Z,3.92
2022-08-27T22:16:24.818Z,3.25
2022-08-27T22:18:54.534Z,3.38
2022-08-27T22:21:24.630Z,4.15
2022-08-27T22:23:53.971Z,3.60
2022-08-27T22:26:23.236Z,3.35
2022-08-27T22:28:52.823Z,4.15
2022-08-27T22:31:22.095Z,3.05
2022-08-27T22:33:52.849Z,2.97
2022-08-27T22:36:22.761Z,2.83
2022-08-27T22:38:51.861Z,3.53
2022-08-27T22:41:20.969Z,3.45
2022-08-27T22:43:51.856Z,2.67
2022-08-27T22:46:25.896Z,3.75
2022-08-27T22:48:56.413Z,2.35
2022-08-27T22:51:25.590Z,3.58
2022-08-27T22:53:55.055Z,2.33
2022-08-27T22:56:24.314Z,2.28
2022-08-27T22:58:53.387Z,2.35
2022-08-27T23:01:23.063Z,2.75
2022-08-27T23:03:52.182Z,2.63
2022-08-27T23:06:22.925Z,2.75
2022-08-27T23:08:52.001Z,2.38
2022-08-27T23:11:21.218Z,2.40
2022-08-27T23:13:50.300Z,2.65
2022-08-27T23:16:19.997Z,2.85
2022-08-27T23:18:49.164Z,2.65
2022-08-27T23:21:18.348Z,2.17
2022-08-27T23:23:51.490Z,2.45
2022-08-27T23:26:38.287Z,2.35
2022-08-27T23:29:07.353Z,2.38
2022-08-27T23:31:37.485Z,2.10
2022-08-27T23:34:06.935Z,2.20
2022-08-27T23:36:36.219Z,2.22
2022-08-27T23:39:06.782Z,2.25
2022-08-27T23:41:35.958Z,2.47
2022-08-27T23:44:05.433Z,2.05
2022-08-27T23:46:34.506Z,2.67
2022-08-27T23:49:03.979Z,2.00
2022-08-27T23:51:34.046Z,1.73
2022-08-27T23:54:03.128Z,2.28
2022-08-27T23:56:33.749Z,2.28
2022-08-27T23:59:02.957Z,2.10
